<?xml version="1.0" encoding="utf-8"?>
<gpx xmlns:xsi="http://www.w3.org/2001/XMLSchema-instance" xmlns:xsd="http://www.w3.org/2001/XMLSchema" version="1.1" creator="Shapelink.com" xmlns="http://www.topografix.com/GPX/1/1" xmlns:gpxtpx="http://www.garmin.com/xmlschemas/TrackPointExtension/v1">
  <metadata>
    <name>Övrigt 2.25 km, 2020-08-04</name>
    <desc></desc>
    <author><name>Marian Moron</name></author> 
    <time>2020-08-04T20:27:52Z</time>
  </metadata>
  <trk>
    <name>Övrigt 2.25 km, 2020-08-04</name>
    <trkseg>
      <trkpt lat="51.231419439987" lon="4.45830159697">
        <ele>0</ele>
        <time>2020-08-04T20:27:52Z</time>
      </trkpt>
      <trkpt lat="51.231529997248" lon="4.458343674108">
        <ele>0</ele>
        <time>2020-08-04T20:28:08Z</time>
      </trkpt>
      <trkpt lat="51.231704843682" lon="4.458896963327">
        <ele>0</ele>
        <time>2020-08-04T20:28:48Z</time>
      </trkpt>
      <trkpt lat="51.231745495897" lon="4.459110115044">
        <ele>0</ele>
        <time>2020-08-04T20:29:00Z</time>
      </trkpt>
      <trkpt lat="51.231757146738" lon="4.459303988391">
        <ele>0</ele>
        <time>2020-08-04T20:29:10Z</time>
      </trkpt>
      <trkpt lat="51.231895615726" lon="4.459916034729">
        <ele>0</ele>
        <time>2020-08-04T20:29:41Z</time>
      </trkpt>
      <trkpt lat="51.231996114707" lon="4.460339655955">
        <ele>0</ele>
        <time>2020-08-04T20:30:05Z</time>
      </trkpt>
      <trkpt lat="51.232093009471" lon="4.461053793835">
        <ele>0</ele>
        <time>2020-08-04T20:30:40Z</time>
      </trkpt>
      <trkpt lat="51.232210858985" lon="4.461710180424">
        <ele>0</ele>
        <time>2020-08-04T20:31:21Z</time>
      </trkpt>
      <trkpt lat="51.232330133422" lon="4.462391377437">
        <ele>0</ele>
        <time>2020-08-04T20:31:53Z</time>
      </trkpt>
      <trkpt lat="51.232407665997" lon="4.462931171797">
        <ele>0</ele>
        <time>2020-08-04T20:32:41Z</time>
      </trkpt>
      <trkpt lat="51.232507662064" lon="4.462874342515">
        <ele>0</ele>
        <time>2020-08-04T20:33:07Z</time>
      </trkpt>
      <trkpt lat="51.232931534747" lon="4.462624310438">
        <ele>7.4</ele>
        <time>2020-08-04T20:33:53Z</time>
      </trkpt>
      <trkpt lat="51.233236719726" lon="4.462519788145">
        <ele>5.6</ele>
        <time>2020-08-04T20:34:25Z</time>
      </trkpt>
      <trkpt lat="51.233288771325" lon="4.462840479639">
        <ele>2.4</ele>
        <time>2020-08-04T20:34:39Z</time>
      </trkpt>
      <trkpt lat="51.233338978906" lon="4.463166535549">
        <ele>0</ele>
        <time>2020-08-04T20:34:57Z</time>
      </trkpt>
      <trkpt lat="51.233364292244" lon="4.463237194966">
        <ele>0</ele>
        <time>2020-08-04T20:35:08Z</time>
      </trkpt>
      <trkpt lat="51.233454146212" lon="4.463560903944">
        <ele>1</ele>
        <time>2020-08-04T20:35:26Z</time>
      </trkpt>
      <trkpt lat="51.233530756778" lon="4.463644974401">
        <ele>9.2</ele>
        <time>2020-08-04T20:35:34Z</time>
      </trkpt>
      <trkpt lat="51.233459007714" lon="4.464025428842">
        <ele>8.4</ele>
        <time>2020-08-04T20:36:01Z</time>
      </trkpt>
      <trkpt lat="51.233326322237" lon="4.464391969329">
        <ele>7.4</ele>
        <time>2020-08-04T20:36:23Z</time>
      </trkpt>
      <trkpt lat="51.233318610889" lon="4.464428179137">
        <ele>8.4</ele>
        <time>2020-08-04T20:36:26Z</time>
      </trkpt>
      <trkpt lat="51.233058771989" lon="4.465028406996">
        <ele>5.8</ele>
        <time>2020-08-04T20:37:00Z</time>
      </trkpt>
      <trkpt lat="51.232872526171" lon="4.465442472856">
        <ele>0</ele>
        <time>2020-08-04T20:37:27Z</time>
      </trkpt>
      <trkpt lat="51.232754173743" lon="4.465627042294">
        <ele>0</ele>
        <time>2020-08-04T20:37:41Z</time>
      </trkpt>
      <trkpt lat="51.232709582035" lon="4.465673310382">
        <ele>0.2</ele>
        <time>2020-08-04T20:37:47Z</time>
      </trkpt>
      <trkpt lat="51.232491401178" lon="4.466166836654">
        <ele>5.2</ele>
        <time>2020-08-04T20:38:16Z</time>
      </trkpt>
      <trkpt lat="51.232216474858" lon="4.466732363447">
        <ele>3.2</ele>
        <time>2020-08-04T20:38:50Z</time>
      </trkpt>
      <trkpt lat="51.23210566614" lon="4.467148021868">
        <ele>0</ele>
        <time>2020-08-04T20:39:21Z</time>
      </trkpt>
      <trkpt lat="51.232027295375" lon="4.46703972772">
        <ele>0</ele>
        <time>2020-08-04T20:39:27Z</time>
      </trkpt>
      <trkpt lat="51.231966275143" lon="4.467016342219">
        <ele>0</ele>
        <time>2020-08-04T20:39:34Z</time>
      </trkpt>
      <trkpt lat="51.231754967444" lon="4.467148273325">
        <ele>0</ele>
        <time>2020-08-04T20:39:53Z</time>
      </trkpt>
      <trkpt lat="51.231737281635" lon="4.467140142882">
        <ele>0</ele>
        <time>2020-08-04T20:39:55Z</time>
      </trkpt>
      <trkpt lat="51.231662347449" lon="4.467148273325">
        <ele>0</ele>
        <time>2020-08-04T20:40:07Z</time>
      </trkpt>
      <trkpt lat="51.231272337642" lon="4.467025562309">
        <ele>0</ele>
        <time>2020-08-04T20:40:52Z</time>
      </trkpt>
      <trkpt lat="51.231235122006" lon="4.466978791307">
        <ele>0</ele>
        <time>2020-08-04T20:40:59Z</time>
      </trkpt>
      <trkpt lat="51.231372333709" lon="4.466625326584">
        <ele>0</ele>
        <time>2020-08-04T20:41:29Z</time>
      </trkpt>
      <trkpt lat="51.231397311771" lon="4.46659548702">
        <ele>0</ele>
        <time>2020-08-04T20:41:31Z</time>
      </trkpt>
      <trkpt lat="51.231483812979" lon="4.466259205192">
        <ele>0</ele>
        <time>2020-08-04T20:41:57Z</time>
      </trkpt>
      <trkpt lat="51.231576600612" lon="4.46605904542">
        <ele>0</ele>
        <time>2020-08-04T20:42:14Z</time>
      </trkpt>
      <trkpt lat="51.231838534987" lon="4.465479688492">
        <ele>4</ele>
        <time>2020-08-04T20:43:02Z</time>
      </trkpt>
      <trkpt lat="51.231849096181" lon="4.465449429833">
        <ele>4</ele>
        <time>2020-08-04T20:43:04Z</time>
      </trkpt>
      <trkpt lat="51.231932076991" lon="4.465298136538">
        <ele>2.4</ele>
        <time>2020-08-04T20:43:23Z</time>
      </trkpt>
      <trkpt lat="51.231976417242" lon="4.465150112184">
        <ele>2.4</ele>
        <time>2020-08-04T20:43:33Z</time>
      </trkpt>
      <trkpt lat="51.23161783956" lon="4.46473889617">
        <ele>0.4</ele>
        <time>2020-08-04T20:44:16Z</time>
      </trkpt>
      <trkpt lat="51.231430168819" lon="4.464677121567">
        <ele>2.6</ele>
        <time>2020-08-04T20:44:49Z</time>
      </trkpt>
      <trkpt lat="51.231333106417" lon="4.464474279587">
        <ele>0</ele>
        <time>2020-08-04T20:45:10Z</time>
      </trkpt>
      <trkpt lat="51.231276277135" lon="4.464424072006">
        <ele>0</ele>
        <time>2020-08-04T20:45:18Z</time>
      </trkpt>
      <trkpt lat="51.231096653018" lon="4.464510573214">
        <ele>0</ele>
        <time>2020-08-04T20:45:46Z</time>
      </trkpt>
      <trkpt lat="51.230709493057" lon="4.464694053005">
        <ele>2.4</ele>
        <time>2020-08-04T20:46:29Z</time>
      </trkpt>
      <trkpt lat="51.230662973512" lon="4.464747194251">
        <ele>0.4</ele>
        <time>2020-08-04T20:46:40Z</time>
      </trkpt>
      <trkpt lat="51.230528024922" lon="4.46423598217">
        <ele>0</ele>
        <time>2020-08-04T20:47:19Z</time>
      </trkpt>
      <trkpt lat="51.230433141814" lon="4.463984022256">
        <ele>0</ele>
        <time>2020-08-04T20:47:40Z</time>
      </trkpt>
      <trkpt lat="51.230364410234" lon="4.463845972363">
        <ele>0</ele>
        <time>2020-08-04T20:47:52Z</time>
      </trkpt>
      <trkpt lat="51.230140194409" lon="4.464041019176">
        <ele>0</ele>
        <time>2020-08-04T20:48:21Z</time>
      </trkpt>
      <trkpt lat="51.229738282304" lon="4.464286608846">
        <ele>3.4</ele>
        <time>2020-08-04T20:49:04Z</time>
      </trkpt>
      <trkpt lat="51.229292281405" lon="4.464343941042">
        <ele>6.4</ele>
        <time>2020-08-04T20:49:53Z</time>
      </trkpt>
      <trkpt lat="51.229272081026" lon="4.46435165239">
        <ele>6.2</ele>
        <time>2020-08-04T20:49:55Z</time>
      </trkpt>
      <trkpt lat="51.229029173564" lon="4.464372355683">
        <ele>9</ele>
        <time>2020-08-04T20:50:22Z</time>
      </trkpt>
      <trkpt lat="51.229004111683" lon="4.464328099251">
        <ele>8</ele>
        <time>2020-08-04T20:50:25Z</time>
      </trkpt>
      <trkpt lat="51.228911407869" lon="4.464275963833">
        <ele>7</ele>
        <time>2020-08-04T20:50:34Z</time>
      </trkpt>
      <trkpt lat="51.228747960819" lon="4.464195665231">
        <ele>2.4</ele>
        <time>2020-08-04T20:50:52Z</time>
      </trkpt>
      <trkpt lat="51.228676379393" lon="4.464208573357">
        <ele>0</ele>
        <time>2020-08-04T20:51:09Z</time>
      </trkpt>
      <trkpt lat="51.228576802421" lon="4.464193150661">
        <ele>0</ele>
        <time>2020-08-04T20:51:21Z</time>
      </trkpt>
      <trkpt lat="51.228493486335" lon="4.463623852013">
        <ele>0</ele>
        <time>2020-08-04T20:51:58Z</time>
      </trkpt>
      <trkpt lat="51.228180254732" lon="4.463241469735">
        <ele>0</ele>
        <time>2020-08-04T20:52:50Z</time>
      </trkpt>
      <trkpt lat="51.22804044464" lon="4.463146083713">
        <ele>0.2</ele>
        <time>2020-08-04T20:53:11Z</time>
      </trkpt>
      <trkpt lat="51.227909519362" lon="4.46308850006">
        <ele>0.6</ele>
        <time>2020-08-04T20:53:23Z</time>
      </trkpt>
      <trkpt lat="51.227844140542" lon="4.46238274408">
        <ele>0.4</ele>
        <time>2020-08-04T20:54:06Z</time>
      </trkpt>
      <trkpt lat="51.227823018154" lon="4.461670701675">
        <ele>1.8</ele>
        <time>2020-08-04T20:54:46Z</time>
      </trkpt>
      <trkpt lat="51.227886469137" lon="4.460954384501">
        <ele>10.2</ele>
        <time>2020-08-04T20:55:27Z</time>
      </trkpt>
      <trkpt lat="51.227883200196" lon="4.460882886894">
        <ele>10.2</ele>
        <time>2020-08-04T20:55:31Z</time>
      </trkpt>
      <trkpt lat="51.227853360632" lon="4.460784567207">
        <ele>9.4</ele>
        <time>2020-08-04T20:55:37Z</time>
      </trkpt>
      <trkpt lat="51.227832741158" lon="4.460727821744">
        <ele>7.2</ele>
        <time>2020-08-04T20:55:41Z</time>
      </trkpt>
      <trkpt lat="51.227827879656" lon="4.460558255907">
        <ele>2.6</ele>
        <time>2020-08-04T20:55:53Z</time>
      </trkpt>
      <trkpt lat="51.227982274254" lon="4.460440322574">
        <ele>7.2</ele>
        <time>2020-08-04T20:56:17Z</time>
      </trkpt>
      <trkpt lat="51.228205735708" lon="4.460284838329">
        <ele>7.2</ele>
        <time>2020-08-04T20:56:43Z</time>
      </trkpt>
      <trkpt lat="51.228293158925" lon="4.460202695709">
        <ele>7.2</ele>
        <time>2020-08-04T20:57:03Z</time>
      </trkpt>
      <trkpt lat="51.228396591571" lon="4.459617471451">
        <ele>7.2</ele>
        <time>2020-08-04T20:57:44Z</time>
      </trkpt>
      <trkpt lat="51.228453756129" lon="4.459274903198">
        <ele>0</ele>
        <time>2020-08-04T20:58:06Z</time>
      </trkpt>
      <trkpt lat="51.228503376977" lon="4.458568476666">
        <ele>2</ele>
        <time>2020-08-04T20:58:46Z</time>
      </trkpt>
      <trkpt lat="51.22858442995" lon="4.458434533904">
        <ele>2.8</ele>
        <time>2020-08-04T20:58:58Z</time>
      </trkpt>
      <trkpt lat="51.228604462691" lon="4.458157009195">
        <ele>6.8</ele>
        <time>2020-08-04T20:59:13Z</time>
      </trkpt>
      <trkpt lat="51.228633799341" lon="4.458139993938">
        <ele>7.6</ele>
        <time>2020-08-04T20:59:16Z</time>
      </trkpt>
      <trkpt lat="51.228870420378" lon="4.45812390069">
        <ele>9.6</ele>
        <time>2020-08-04T20:59:43Z</time>
      </trkpt>
      <trkpt lat="51.229209216776" lon="4.458159020851">
        <ele>8</ele>
        <time>2020-08-04T21:00:15Z</time>
      </trkpt>
      <trkpt lat="51.229381464821" lon="4.458035387826">
        <ele>9.2</ele>
        <time>2020-08-04T21:00:32Z</time>
      </trkpt>
      <trkpt lat="51.229697965365" lon="4.457898259942">
        <ele>9.8</ele>
        <time>2020-08-04T21:01:31Z</time>
      </trkpt>
    </trkseg>
  </trk>
</gpx>